X  Sluiten METAR luchtvaart weer gegevens      LBPD Plovdiv International Airport
Temperatuur
75°F Temperatuur
57°F Dauwpunt
54% Vochtigheid



Wind
5 MPH
8 KM/U
2 M/S
4 KTS



120°
OZO
Huidig weer

Helder Helder
Luchtdruk 1011.85 (hPa) - 29.88 (inHg)
Zicht 6 (mijl) - 9.7 (km)
Vliegveld
Vliegveld code LBPD

Locatie : Plovdiv International Airport
Afstand: 14 (mi)

Metar:
LBPD 240530Z AUTO 12004KT 050V160 9999 NCD 24/14 Q1012 NOSIG

Tijd: 24-06-2024 08:30 EEST